首页
METAR-TAF:

METAR-TAF

机场 :

Kenosha, 威斯康辛州, 美国

纬度: 42-35-42N, 经度: 087-56-17W, 海拔: 226米

当前天气观测

该预报发布于25分钟前的20:53 UTC
风速13节,风向西转西北,有时为19节阵风
温度 -2°C
湿度 80%
气压 1007 hPa
能見度: 6.4公里
阴天层高于1700英尺

METAR: KENW 142053Z 30013G19KT 4SM HZ OVC017 M02/M05 A2973 RMK AO2 SLP077 T10221050 53012

时间: 15:18 (21:18 UTC)

预报

该预报发布于1小时和20分钟前的19:58 UTC
预报有效从14日的 20点(UTC)到 15日的 18点(UTC)
风速12节,风向西北
能見度: 6.4公里
阴天层高于1300英尺
轻雾
从 14日的 2200点(UTC)
风速11节,风向西转西北
能見度: 10公里
阴天层高于1400英尺
从 15日的 0100点(UTC)
风速10节,风向西转西北
能見度: 10公里
多云层高于2400英尺
从 15日的 0500点(UTC)
风速9节,风向西转西北
能見度: 10公里
多云层高于4500英尺
从 15日的 1100点(UTC)
风速8节,风向西转西北
能見度: 10公里
少量云层高于25000英尺

TAF: KENW 141958Z 1420/1518 31012KT 4SM BR OVC013 FM142200 30011KT P6SM OVC014 FM150100 30010KT P6SM BKN024 FM150500 30009KT P6SM BKN045 FM151100 30008KT P6SM FEW250

超过4000个机场的气象观测和天气预报(METAR&TAF报告)。

可查询的气象台以黄色和红色小点在地图上表示。

将鼠标移到小点上方,可查看气象台名称。

然后点击查看天气观测和预报。

如需切换地图:点击带黑十字的绿色按钮放大地图;点击带横线的绿色按钮缩小地图;或者点击绿色箭头查看邻近地区的地图。


METAR-TAF: